sensor_id;sensor_type;location;lat;lon;timestamp;temperature;humidity
21037;DHT22;10677;50.942;4.028;2024-03-29T00:00:40;10.80;1.00
21037;DHT22;10677;50.942;4.028;2024-03-29T00:03:06;10.80;1.00
21037;DHT22;10677;50.942;4.028;2024-03-29T00:05:33;10.80;1.00
21037;DHT22;10677;50.942;4.028;2024-03-29T00:07:59;10.90;1.00
21037;DHT22;10677;50.942;4.028;2024-03-29T00:10:25;10.90;1.00
21037;DHT22;10677;50.942;4.028;2024-03-29T00:12:50;10.80;1.00
21037;DHT22;10677;50.942;4.028;2024-03-29T00:15:16;10.80;1.00
21037;DHT22;10677;50.942;4.028;2024-03-29T00:17:42;10.80;1.00
21037;DHT22;10677;50.942;4.028;2024-03-29T00:20:07;10.80;1.00
21037;DHT22;10677;50.942;4.028;2024-03-29T00:22:34;10.80;1.00
21037;DHT22;10677;50.942;4.028;2024-03-29T00:24:59;10.80;1.00
21037;DHT22;10677;50.942;4.028;2024-03-29T00:27:25;10.80;1.00
21037;DHT22;10677;50.942;4.028;2024-03-29T00:29:52;10.80;1.00
21037;DHT22;10677;50.942;4.028;2024-03-29T00:32:19;10.70;1.00
21037;DHT22;10677;50.942;4.028;2024-03-29T00:34:45;10.80;1.00
21037;DHT22;10677;50.942;4.028;2024-03-29T00:37:11;10.80;1.00
21037;DHT22;10677;50.942;4.028;2024-03-29T00:39:36;10.80;1.00
21037;DHT22;10677;50.942;4.028;2024-03-29T00:42:03;10.80;1.00
21037;DHT22;10677;50.942;4.028;2024-03-29T00:44:30;10.80;1.00
21037;DHT22;10677;50.942;4.028;2024-03-29T00:46:55;10.80;1.00
21037;DHT22;10677;50.942;4.028;2024-03-29T00:49:21;10.80;1.00
21037;DHT22;10677;50.942;4.028;2024-03-29T00:51:46;10.90;1.00
21037;DHT22;10677;50.942;4.028;2024-03-29T00:54:12;10.90;1.00
21037;DHT22;10677;50.942;4.028;2024-03-29T00:56:37;10.90;1.00
21037;DHT22;10677;50.942;4.028;2024-03-29T00:59:03;10.80;1.00
21037;DHT22;10677;50.942;4.028;2024-03-29T01:01:29;10.80;1.00
21037;DHT22;10677;50.942;4.028;2024-03-29T01:03:54;10.80;1.00
21037;DHT22;10677;50.942;4.028;2024-03-29T01:06:20;10.80;1.00
21037;DHT22;10677;50.942;4.028;2024-03-29T01:08:45;10.70;1.00
21037;DHT22;10677;50.942;4.028;2024-03-29T01:11:11;10.80;1.00
21037;DHT22;10677;50.942;4.028;2024-03-29T01:13:37;10.80;1.00
21037;DHT22;10677;50.942;4.028;2024-03-29T01:16:02;10.90;1.00
21037;DHT22;10677;50.942;4.028;2024-03-29T01:18:28;10.90;1.00
21037;DHT22;10677;50.942;4.028;2024-03-29T01:20:53;11.00;1.00
21037;DHT22;10677;50.942;4.028;2024-03-29T01:23:19;11.00;1.00
21037;DHT22;10677;50.942;4.028;2024-03-29T01:25:45;11.00;1.00
21037;DHT22;10677;50.942;4.028;2024-03-29T01:28:10;11.00;1.00
21037;DHT22;10677;50.942;4.028;2024-03-29T01:30:36;11.10;1.00
21037;DHT22;10677;50.942;4.028;2024-03-29T01:33:01;11.00;1.00
21037;DHT22;10677;50.942;4.028;2024-03-29T01:35:27;11.00;1.00
21037;DHT22;10677;50.942;4.028;2024-03-29T01:37:53;11.00;1.00
21037;DHT22;10677;50.942;4.028;2024-03-29T01:40:19;11.00;1.00
21037;DHT22;10677;50.942;4.028;2024-03-29T01:42:45;11.00;1.00
21037;DHT22;10677;50.942;4.028;2024-03-29T01:45:11;10.90;1.00
21037;DHT22;10677;50.942;4.028;2024-03-29T01:47:37;10.90;1.00
21037;DHT22;10677;50.942;4.028;2024-03-29T01:50:03;10.90;1.00
21037;DHT22;10677;50.942;4.028;2024-03-29T01:52:29;10.90;1.00
21037;DHT22;10677;50.942;4.028;2024-03-29T01:54:55;10.90;1.00
21037;DHT22;10677;50.942;4.028;2024-03-29T01:57:21;11.00;1.00
21037;DHT22;10677;50.942;4.028;2024-03-29T01:59:47;11.00;1.00
21037;DHT22;10677;50.942;4.028;2024-03-29T02:02:13;11.00;1.00
21037;DHT22;10677;50.942;4.028;2024-03-29T02:04:39;11.00;1.00
21037;DHT22;10677;50.942;4.028;2024-03-29T02:07:07;11.00;1.00
21037;DHT22;10677;50.942;4.028;2024-03-29T02:09:33;10.90;1.00
21037;DHT22;10677;50.942;4.028;2024-03-29T02:11:58;10.80;1.00
21037;DHT22;10677;50.942;4.028;2024-03-29T02:14:24;10.80;1.00
21037;DHT22;10677;50.942;4.028;2024-03-29T02:16:50;10.70;1.00
21037;DHT22;10677;50.942;4.028;2024-03-29T02:19:15;10.60;1.00
21037;DHT22;10677;50.942;4.028;2024-03-29T02:21:44;10.50;1.00
21037;DHT22;10677;50.942;4.028;2024-03-29T02:24:12;10.60;1.00
21037;DHT22;10677;50.942;4.028;2024-03-29T02:26:38;10.60;1.00
21037;DHT22;10677;50.942;4.028;2024-03-29T02:29:08;10.50;1.00
21037;DHT22;10677;50.942;4.028;2024-03-29T02:31:34;10.50;1.00
21037;DHT22;10677;50.942;4.028;2024-03-29T02:34:00;10.50;1.00
21037;DHT22;10677;50.942;4.028;2024-03-29T02:36:26;10.50;1.00
21037;DHT22;10677;50.942;4.028;2024-03-29T02:38:51;10.60;1.00
21037;DHT22;10677;50.942;4.028;2024-03-29T02:41:18;10.50;1.00
21037;DHT22;10677;50.942;4.028;2024-03-29T02:43:44;10.50;1.00
21037;DHT22;10677;50.942;4.028;2024-03-29T02:46:09;10.50;1.00
21037;DHT22;10677;50.942;4.028;2024-03-29T02:48:35;10.40;1.00
21037;DHT22;10677;50.942;4.028;2024-03-29T02:51:01;10.40;10.20
21037;DHT22;10677;50.942;4.028;2024-03-29T02:53:27;10.30;19.90
21037;DHT22;10677;50.942;4.028;2024-03-29T02:55:52;10.20;27.70
21037;DHT22;10677;50.942;4.028;2024-03-29T02:58:18;10.10;36.90
21037;DHT22;10677;50.942;4.028;2024-03-29T03:00:44;10.10;42.10
21037;DHT22;10677;50.942;4.028;2024-03-29T03:03:09;10.10;44.50
21037;DHT22;10677;50.942;4.028;2024-03-29T03:05:35;10.00;54.90
21037;DHT22;10677;50.942;4.028;2024-03-29T03:08:00;9.90;63.00
21037;DHT22;10677;50.942;4.028;2024-03-29T03:10:52;9.90;75.50
21037;DHT22;10677;50.942;4.028;2024-03-29T03:13:28;9.90;82.00
21037;DHT22;10677;50.942;4.028;2024-03-29T03:15:54;9.90;91.80
21037;DHT22;10677;50.942;4.028;2024-03-29T03:18:20;9.80;99.90
21037;DHT22;10677;50.942;4.028;2024-03-29T03:20:56;9.80;99.90
21037;DHT22;10677;50.942;4.028;2024-03-29T03:23:24;9.70;99.90
21037;DHT22;10677;50.942;4.028;2024-03-29T03:26:01;9.70;99.90
21037;DHT22;10677;50.942;4.028;2024-03-29T03:28:28;9.70;99.90
21037;DHT22;10677;50.942;4.028;2024-03-29T03:30:54;9.60;99.90
21037;DHT22;10677;50.942;4.028;2024-03-29T03:33:20;9.60;99.90
21037;DHT22;10677;50.942;4.028;2024-03-29T03:35:46;9.60;99.90
21037;DHT22;10677;50.942;4.028;2024-03-29T03:38:12;9.70;99.90
21037;DHT22;10677;50.942;4.028;2024-03-29T03:40:38;9.60;99.90
21037;DHT22;10677;50.942;4.028;2024-03-29T03:43:05;9.60;99.90
21037;DHT22;10677;50.942;4.028;2024-03-29T03:45:39;9.60;99.90
21037;DHT22;10677;50.942;4.028;2024-03-29T03:48:06;9.60;99.90
21037;DHT22;10677;50.942;4.028;2024-03-29T03:50:33;9.60;99.90
21037;DHT22;10677;50.942;4.028;2024-03-29T03:52:59;9.50;99.90
21037;DHT22;10677;50.942;4.028;2024-03-29T03:55:25;9.50;99.90
21037;DHT22;10677;50.942;4.028;2024-03-29T03:57:51;9.50;99.90
21037;DHT22;10677;50.942;4.028;2024-03-29T04:00:20;9.50;99.90
21037;DHT22;10677;50.942;4.028;2024-03-29T04:02:50;9.40;99.90
21037;DHT22;10677;50.942;4.028;2024-03-29T04:05:19;9.50;99.90
21037;DHT22;10677;50.942;4.028;2024-03-29T04:07:45;9.50;99.90
21037;DHT22;10677;50.942;4.028;2024-03-29T04:10:11;9.50;99.90
21037;DHT22;10677;50.942;4.028;2024-03-29T04:12:37;9.50;99.90
21037;DHT22;10677;50.942;4.028;2024-03-29T04:15:03;9.50;99.90
21037;DHT22;10677;50.942;4.028;2024-03-29T04:17:30;9.50;99.90
21037;DHT22;10677;50.942;4.028;2024-03-29T04:19:57;9.60;99.90
21037;DHT22;10677;50.942;4.028;2024-03-29T04:22:23;9.50;99.90
21037;DHT22;10677;50.942;4.028;2024-03-29T04:24:49;9.50;99.90
21037;DHT22;10677;50.942;4.028;2024-03-29T04:27:14;9.50;99.90
21037;DHT22;10677;50.942;4.028;2024-03-29T04:29:40;9.60;99.90
21037;DHT22;10677;50.942;4.028;2024-03-29T04:32:06;9.60;99.90
21037;DHT22;10677;50.942;4.028;2024-03-29T04:34:33;9.70;99.90
21037;DHT22;10677;50.942;4.028;2024-03-29T04:36:58;9.80;99.90
21037;DHT22;10677;50.942;4.028;2024-03-29T04:39:24;9.70;99.90
21037;DHT22;10677;50.942;4.028;2024-03-29T04:41:49;9.70;99.90
21037;DHT22;10677;50.942;4.028;2024-03-29T04:44:24;9.60;99.90
21037;DHT22;10677;50.942;4.028;2024-03-29T04:46:50;9.50;99.90
21037;DHT22;10677;50.942;4.028;2024-03-29T04:49:17;9.50;99.90
21037;DHT22;10677;50.942;4.028;2024-03-29T04:51:48;9.40;99.90
21037;DHT22;10677;50.942;4.028;2024-03-29T04:54:14;9.30;99.90
21037;DHT22;10677;50.942;4.028;2024-03-29T04:56:41;9.20;99.90
21037;DHT22;10677;50.942;4.028;2024-03-29T04:59:07;9.20;99.90
21037;DHT22;10677;50.942;4.028;2024-03-29T05:01:33;9.20;99.90
21037;DHT22;10677;50.942;4.028;2024-03-29T05:04:00;9.10;99.90
21037;DHT22;10677;50.942;4.028;2024-03-29T05:06:26;9.00;99.90
21037;DHT22;10677;50.942;4.028;2024-03-29T05:08:52;9.00;99.90
21037;DHT22;10677;50.942;4.028;2024-03-29T05:11:18;8.90;99.90
21037;DHT22;10677;50.942;4.028;2024-03-29T05:13:44;8.90;99.90
21037;DHT22;10677;50.942;4.028;2024-03-29T05:16:10;9.00;99.90
21037;DHT22;10677;50.942;4.028;2024-03-29T05:18:36;9.00;99.90
21037;DHT22;10677;50.942;4.028;2024-03-29T05:21:01;9.00;99.90
21037;DHT22;10677;50.942;4.028;2024-03-29T05:23:27;9.00;99.90
21037;DHT22;10677;50.942;4.028;2024-03-29T05:25:53;9.00;99.90
21037;DHT22;10677;50.942;4.028;2024-03-29T05:28:19;9.00;99.90
21037;DHT22;10677;50.942;4.028;2024-03-29T05:30:45;9.10;99.90
21037;DHT22;10677;50.942;4.028;2024-03-29T05:33:10;9.10;99.90
21037;DHT22;10677;50.942;4.028;2024-03-29T05:35:36;9.20;99.90
21037;DHT22;10677;50.942;4.028;2024-03-29T05:38:02;9.20;99.90
21037;DHT22;10677;50.942;4.028;2024-03-29T05:40:28;9.10;99.90
21037;DHT22;10677;50.942;4.028;2024-03-29T05:42:54;9.00;99.90
21037;DHT22;10677;50.942;4.028;2024-03-29T05:45:28;9.00;99.90
21037;DHT22;10677;50.942;4.028;2024-03-29T05:47:55;9.10;99.90
21037;DHT22;10677;50.942;4.028;2024-03-29T05:50:21;9.10;99.90
21037;DHT22;10677;50.942;4.028;2024-03-29T05:52:47;9.10;99.90
21037;DHT22;10677;50.942;4.028;2024-03-29T05:55:13;9.10;99.90
21037;DHT22;10677;50.942;4.028;2024-03-29T05:57:38;9.20;99.90
21037;DHT22;10677;50.942;4.028;2024-03-29T06:00:12;9.20;99.90
21037;DHT22;10677;50.942;4.028;2024-03-29T06:02:42;9.20;99.90
21037;DHT22;10677;50.942;4.028;2024-03-29T06:05:10;9.10;99.90
21037;DHT22;10677;50.942;4.028;2024-03-29T06:07:36;9.10;99.90
21037;DHT22;10677;50.942;4.028;2024-03-29T06:10:01;9.20;99.90
21037;DHT22;10677;50.942;4.028;2024-03-29T06:12:33;9.20;99.90
21037;DHT22;10677;50.942;4.028;2024-03-29T06:14:59;9.20;99.90
21037;DHT22;10677;50.942;4.028;2024-03-29T06:17:43;9.30;99.90
21037;DHT22;10677;50.942;4.028;2024-03-29T06:20:09;9.30;99.90
21037;DHT22;10677;50.942;4.028;2024-03-29T06:22:35;9.30;99.90
21037;DHT22;10677;50.942;4.028;2024-03-29T06:25:01;9.20;99.90
21037;DHT22;10677;50.942;4.028;2024-03-29T06:27:33;9.30;99.90
21037;DHT22;10677;50.942;4.028;2024-03-29T06:29:59;9.30;99.90
21037;DHT22;10677;50.942;4.028;2024-03-29T06:32:25;9.40;99.90
21037;DHT22;10677;50.942;4.028;2024-03-29T06:34:50;9.50;99.90
21037;DHT22;10677;50.942;4.028;2024-03-29T06:37:16;9.60;99.90
21037;DHT22;10677;50.942;4.028;2024-03-29T06:39:42;9.60;99.90
21037;DHT22;10677;50.942;4.028;2024-03-29T06:42:09;9.60;99.90
21037;DHT22;10677;50.942;4.028;2024-03-29T06:44:35;9.70;99.90
21037;DHT22;10677;50.942;4.028;2024-03-29T06:47:02;9.70;99.90
21037;DHT22;10677;50.942;4.028;2024-03-29T06:49:28;9.90;99.90
21037;DHT22;10677;50.942;4.028;2024-03-29T06:51:53;9.80;99.90
21037;DHT22;10677;50.942;4.028;2024-03-29T06:54:21;9.90;99.90
21037;DHT22;10677;50.942;4.028;2024-03-29T06:56:52;10.00;99.90
21037;DHT22;10677;50.942;4.028;2024-03-29T06:59:18;10.10;99.90
21037;DHT22;10677;50.942;4.028;2024-03-29T07:01:44;10.20;99.90
21037;DHT22;10677;50.942;4.028;2024-03-29T07:04:09;10.30;99.90
21037;DHT22;10677;50.942;4.028;2024-03-29T07:06:35;10.30;99.90
21037;DHT22;10677;50.942;4.028;2024-03-29T07:09:03;10.30;99.90
21037;DHT22;10677;50.942;4.028;2024-03-29T07:11:29;10.40;99.90
21037;DHT22;10677;50.942;4.028;2024-03-29T07:13:55;10.40;99.90
21037;DHT22;10677;50.942;4.028;2024-03-29T07:16:21;10.30;99.90
21037;DHT22;10677;50.942;4.028;2024-03-29T07:18:46;10.40;99.90
21037;DHT22;10677;50.942;4.028;2024-03-29T07:21:12;10.40;99.90
21037;DHT22;10677;50.942;4.028;2024-03-29T07:23:38;10.50;99.90
21037;DHT22;10677;50.942;4.028;2024-03-29T07:26:05;10.50;99.90
21037;DHT22;10677;50.942;4.028;2024-03-29T07:28:31;10.50;99.90
21037;DHT22;10677;50.942;4.028;2024-03-29T07:30:57;10.50;99.90
21037;DHT22;10677;50.942;4.028;2024-03-29T07:33:24;10.40;99.90
21037;DHT22;10677;50.942;4.028;2024-03-29T07:35:54;10.30;99.90
21037;DHT22;10677;50.942;4.028;2024-03-29T07:38:23;10.40;99.90
21037;DHT22;10677;50.942;4.028;2024-03-29T07:40:50;10.40;99.90
21037;DHT22;10677;50.942;4.028;2024-03-29T07:43:16;10.50;99.90
21037;DHT22;10677;50.942;4.028;2024-03-29T07:45:45;10.50;99.90
21037;DHT22;10677;50.942;4.028;2024-03-29T07:48:13;10.50;99.90
21037;DHT22;10677;50.942;4.028;2024-03-29T07:50:42;10.50;99.90
21037;DHT22;10677;50.942;4.028;2024-03-29T07:53:08;10.60;99.90
21037;DHT22;10677;50.942;4.028;2024-03-29T07:55:38;10.80;99.90
21037;DHT22;10677;50.942;4.028;2024-03-29T07:58:05;10.80;99.90
21037;DHT22;10677;50.942;4.028;2024-03-29T08:00:33;11.00;99.90
21037;DHT22;10677;50.942;4.028;2024-03-29T08:03:00;11.00;99.90
21037;DHT22;10677;50.942;4.028;2024-03-29T08:05:27;11.20;99.90
21037;DHT22;10677;50.942;4.028;2024-03-29T08:07:52;11.40;99.90
21037;DHT22;10677;50.942;4.028;2024-03-29T08:10:18;11.50;99.90
21037;DHT22;10677;50.942;4.028;2024-03-29T08:12:44;11.50;99.90
21037;DHT22;10677;50.942;4.028;2024-03-29T08:15:09;11.60;99.90
21037;DHT22;10677;50.942;4.028;2024-03-29T08:17:36;11.60;99.90
21037;DHT22;10677;50.942;4.028;2024-03-29T08:20:03;11.70;99.90
21037;DHT22;10677;50.942;4.028;2024-03-29T08:22:29;11.70;99.90
21037;DHT22;10677;50.942;4.028;2024-03-29T08:24:57;11.80;99.90
21037;DHT22;10677;50.942;4.028;2024-03-29T08:27:23;12.00;99.90
21037;DHT22;10677;50.942;4.028;2024-03-29T08:29:49;11.90;99.90
21037;DHT22;10677;50.942;4.028;2024-03-29T08:32:15;11.90;99.90
21037;DHT22;10677;50.942;4.028;2024-03-29T08:34:41;11.90;99.90
21037;DHT22;10677;50.942;4.028;2024-03-29T08:37:07;12.00;99.90
21037;DHT22;10677;50.942;4.028;2024-03-29T08:39:32;12.10;99.90
21037;DHT22;10677;50.942;4.028;2024-03-29T08:41:59;12.20;99.90
21037;DHT22;10677;50.942;4.028;2024-03-29T08:44:28;12.30;99.90
21037;DHT22;10677;50.942;4.028;2024-03-29T08:46:53;12.40;99.90
21037;DHT22;10677;50.942;4.028;2024-03-29T08:49:22;12.60;99.90
21037;DHT22;10677;50.942;4.028;2024-03-29T08:51:48;12.90;99.90
21037;DHT22;10677;50.942;4.028;2024-03-29T08:54:13;13.10;90.30
21037;DHT22;10677;50.942;4.028;2024-03-29T08:56:39;13.40;80.40
21037;DHT22;10677;50.942;4.028;2024-03-29T08:59:06;13.60;59.30
21037;DHT22;10677;50.942;4.028;2024-03-29T09:01:39;13.40;51.30
21037;DHT22;10677;50.942;4.028;2024-03-29T09:04:04;13.30;54.30
21037;DHT22;10677;50.942;4.028;2024-03-29T09:06:33;13.30;52.30
21037;DHT22;10677;50.942;4.028;2024-03-29T09:08:59;13.30;53.80
21037;DHT22;10677;50.942;4.028;2024-03-29T09:11:24;13.40;53.00
21037;DHT22;10677;50.942;4.028;2024-03-29T09:13:50;13.30;51.10
21037;DHT22;10677;50.942;4.028;2024-03-29T09:16:15;13.20;53.70
21037;DHT22;10677;50.942;4.028;2024-03-29T09:18:41;13.30;49.70
21037;DHT22;10677;50.942;4.028;2024-03-29T09:21:07;13.30;40.90
21037;DHT22;10677;50.942;4.028;2024-03-29T09:23:34;13.20;39.90
21037;DHT22;10677;50.942;4.028;2024-03-29T09:26:00;13.20;45.90
21037;DHT22;10677;50.942;4.028;2024-03-29T09:28:29;13.40;45.70
21037;DHT22;10677;50.942;4.028;2024-03-29T09:30:58;13.60;29.80
21037;DHT22;10677;50.942;4.028;2024-03-29T09:33:24;13.70;23.10
21037;DHT22;10677;50.942;4.028;2024-03-29T09:35:50;13.50;22.80
21037;DHT22;10677;50.942;4.028;2024-03-29T09:38:16;13.40;20.10
21037;DHT22;10677;50.942;4.028;2024-03-29T09:40:42;13.40;23.40
21037;DHT22;10677;50.942;4.028;2024-03-29T09:43:10;13.50;29.40
21037;DHT22;10677;50.942;4.028;2024-03-29T09:45:37;13.50;17.20
21037;DHT22;10677;50.942;4.028;2024-03-29T09:48:07;13.40;17.70
21037;DHT22;10677;50.942;4.028;2024-03-29T09:50:35;13.40;27.80
21037;DHT22;10677;50.942;4.028;2024-03-29T09:53:02;13.50;23.30
21037;DHT22;10677;50.942;4.028;2024-03-29T09:55:28;13.50;15.10
21037;DHT22;10677;50.942;4.028;2024-03-29T09:57:55;13.40;18.40
21037;DHT22;10677;50.942;4.028;2024-03-29T10:00:21;13.30;29.40
21037;DHT22;10677;50.942;4.028;2024-03-29T10:02:49;13.50;28.60
21037;DHT22;10677;50.942;4.028;2024-03-29T10:05:16;13.50;29.60
21037;DHT22;10677;50.942;4.028;2024-03-29T10:07:43;13.60;21.30
21037;DHT22;10677;50.942;4.028;2024-03-29T10:10:10;13.40;13.50
21037;DHT22;10677;50.942;4.028;2024-03-29T10:12:37;13.20;20.40
21037;DHT22;10677;50.942;4.028;2024-03-29T10:15:03;13.30;21.20
21037;DHT22;10677;50.942;4.028;2024-03-29T10:17:44;13.50;19.50
21037;DHT22;10677;50.942;4.028;2024-03-29T10:20:10;13.60;8.10
21037;DHT22;10677;50.942;4.028;2024-03-29T10:22:40;13.50;16.00
21037;DHT22;10677;50.942;4.028;2024-03-29T10:25:06;13.50;21.50
21037;DHT22;10677;50.942;4.028;2024-03-29T10:27:32;13.50;17.10
21037;DHT22;10677;50.942;4.028;2024-03-29T10:29:59;13.70;17.90
21037;DHT22;10677;50.942;4.028;2024-03-29T10:32:25;13.90;16.00
21037;DHT22;10677;50.942;4.028;2024-03-29T10:34:51;14.20;1.00
21037;DHT22;10677;50.942;4.028;2024-03-29T10:37:19;14.30;1.00
21037;DHT22;10677;50.942;4.028;2024-03-29T10:39:52;14.50;1.00
21037;DHT22;10677;50.942;4.028;2024-03-29T10:42:20;14.60;1.00
21037;DHT22;10677;50.942;4.028;2024-03-29T10:44:48;14.70;1.00
21037;DHT22;10677;50.942;4.028;2024-03-29T10:47:18;14.80;1.00
21037;DHT22;10677;50.942;4.028;2024-03-29T10:49:49;14.90;1.00
21037;DHT22;10677;50.942;4.028;2024-03-29T10:52:18;15.00;1.00
21037;DHT22;10677;50.942;4.028;2024-03-29T10:54:45;15.20;1.00
21037;DHT22;10677;50.942;4.028;2024-03-29T10:57:19;15.20;1.00
21037;DHT22;10677;50.942;4.028;2024-03-29T11:05:30;15.30;1.00
21037;DHT22;10677;50.942;4.028;2024-03-29T11:07:56;15.30;1.00
21037;DHT22;10677;50.942;4.028;2024-03-29T11:15:36;15.10;1.00
21037;DHT22;10677;50.942;4.028;2024-03-29T11:18:03;15.10;1.00
21037;DHT22;10677;50.942;4.028;2024-03-29T11:20:30;15.20;1.00
21037;DHT22;10677;50.942;4.028;2024-03-29T11:23:05;15.50;1.00
21037;DHT22;10677;50.942;4.028;2024-03-29T11:25:51;15.70;1.00
21037;DHT22;10677;50.942;4.028;2024-03-29T11:31:06;15.80;1.00
21037;DHT22;10677;50.942;4.028;2024-03-29T11:36:24;16.20;1.00
21037;DHT22;10677;50.942;4.028;2024-03-29T11:38:52;16.20;1.00
21037;DHT22;10677;50.942;4.028;2024-03-29T11:41:20;16.20;1.00
21037;DHT22;10677;50.942;4.028;2024-03-29T11:43:49;16.40;1.00
21037;DHT22;10677;50.942;4.028;2024-03-29T11:46:15;16.40;1.00
21037;DHT22;10677;50.942;4.028;2024-03-29T11:48:44;16.40;1.00
21037;DHT22;10677;50.942;4.028;2024-03-29T11:51:15;16.40;1.00
21037;DHT22;10677;50.942;4.028;2024-03-29T11:53:41;16.70;1.00
21037;DHT22;10677;50.942;4.028;2024-03-29T11:56:08;16.70;1.00
21037;DHT22;10677;50.942;4.028;2024-03-29T11:58:34;16.90;1.00
21037;DHT22;10677;50.942;4.028;2024-03-29T12:01:00;17.00;1.00
21037;DHT22;10677;50.942;4.028;2024-03-29T12:03:28;16.90;1.00
21037;DHT22;10677;50.942;4.028;2024-03-29T12:05:55;16.80;1.00
21037;DHT22;10677;50.942;4.028;2024-03-29T12:08:24;16.90;1.00
21037;DHT22;10677;50.942;4.028;2024-03-29T12:10:51;17.30;1.00
21037;DHT22;10677;50.942;4.028;2024-03-29T12:13:17;17.30;1.00
21037;DHT22;10677;50.942;4.028;2024-03-29T12:15:43;17.50;1.00
21037;DHT22;10677;50.942;4.028;2024-03-29T12:18:09;17.50;1.00
21037;DHT22;10677;50.942;4.028;2024-03-29T12:20:37;17.50;1.00
21037;DHT22;10677;50.942;4.028;2024-03-29T12:23:05;17.50;1.00
21037;DHT22;10677;50.942;4.028;2024-03-29T12:25:33;17.40;1.00
21037;DHT22;10677;50.942;4.028;2024-03-29T12:27:59;17.40;1.00
21037;DHT22;10677;50.942;4.028;2024-03-29T12:30:26;17.50;1.00
21037;DHT22;10677;50.942;4.028;2024-03-29T12:33:09;17.40;1.00
21037;DHT22;10677;50.942;4.028;2024-03-29T12:35:36;17.30;1.00
21037;DHT22;10677;50.942;4.028;2024-03-29T12:38:04;17.30;1.00
21037;DHT22;10677;50.942;4.028;2024-03-29T12:40:31;17.30;1.00
21037;DHT22;10677;50.942;4.028;2024-03-29T12:43:04;17.10;1.00
21037;DHT22;10677;50.942;4.028;2024-03-29T12:45:31;17.20;1.00
21037;DHT22;10677;50.942;4.028;2024-03-29T12:47:57;17.30;1.00
21037;DHT22;10677;50.942;4.028;2024-03-29T12:52:57;17.50;1.00
21037;DHT22;10677;50.942;4.028;2024-03-29T12:55:24;17.50;1.00
21037;DHT22;10677;50.942;4.028;2024-03-29T12:57:53;17.40;1.00
21037;DHT22;10677;50.942;4.028;2024-03-29T13:00:23;17.20;1.00
21037;DHT22;10677;50.942;4.028;2024-03-29T13:02:49;17.00;1.00
21037;DHT22;10677;50.942;4.028;2024-03-29T13:05:15;17.00;1.00
21037;DHT22;10677;50.942;4.028;2024-03-29T13:07:41;17.00;1.00
21037;DHT22;10677;50.942;4.028;2024-03-29T13:10:08;17.10;1.00
21037;DHT22;10677;50.942;4.028;2024-03-29T13:12:45;16.90;1.00
21037;DHT22;10677;50.942;4.028;2024-03-29T13:15:20;16.90;1.00
21037;DHT22;10677;50.942;4.028;2024-03-29T13:17:47;17.00;1.00
21037;DHT22;10677;50.942;4.028;2024-03-29T13:20:14;16.90;1.00
21037;DHT22;10677;50.942;4.028;2024-03-29T13:22:44;16.80;1.00
21037;DHT22;10677;50.942;4.028;2024-03-29T13:25:12;16.90;1.00
21037;DHT22;10677;50.942;4.028;2024-03-29T13:27:39;16.80;1.00
21037;DHT22;10677;50.942;4.028;2024-03-29T13:30:06;16.80;1.00
21037;DHT22;10677;50.942;4.028;2024-03-29T13:32:32;16.80;1.00
21037;DHT22;10677;50.942;4.028;2024-03-29T13:34:59;16.80;1.00
21037;DHT22;10677;50.942;4.028;2024-03-29T13:37:25;17.00;1.00
21037;DHT22;10677;50.942;4.028;2024-03-29T13:39:55;17.10;1.00
21037;DHT22;10677;50.942;4.028;2024-03-29T13:42:21;17.20;1.00
21037;DHT22;10677;50.942;4.028;2024-03-29T13:44:51;17.10;1.00
21037;DHT22;10677;50.942;4.028;2024-03-29T13:47:17;17.40;1.00
21037;DHT22;10677;50.942;4.028;2024-03-29T13:49:44;17.80;1.00
21037;DHT22;10677;50.942;4.028;2024-03-29T13:52:09;17.50;1.00
21037;DHT22;10677;50.942;4.028;2024-03-29T13:54:35;17.50;1.00
21037;DHT22;10677;50.942;4.028;2024-03-29T13:57:04;17.40;1.00
21037;DHT22;10677;50.942;4.028;2024-03-29T13:59:30;17.30;1.00
21037;DHT22;10677;50.942;4.028;2024-03-29T14:01:56;17.40;1.00
21037;DHT22;10677;50.942;4.028;2024-03-29T14:04:22;17.50;1.00
21037;DHT22;10677;50.942;4.028;2024-03-29T14:06:48;17.70;1.00
21037;DHT22;10677;50.942;4.028;2024-03-29T14:09:14;17.60;1.00
21037;DHT22;10677;50.942;4.028;2024-03-29T14:11:39;17.70;1.00
21037;DHT22;10677;50.942;4.028;2024-03-29T14:14:05;17.90;1.00
21037;DHT22;10677;50.942;4.028;2024-03-29T14:16:33;17.90;1.00
21037;DHT22;10677;50.942;4.028;2024-03-29T14:18:58;18.10;1.00
21037;DHT22;10677;50.942;4.028;2024-03-29T14:21:24;18.60;1.00
21037;DHT22;10677;50.942;4.028;2024-03-29T14:23:50;18.70;1.00
21037;DHT22;10677;50.942;4.028;2024-03-29T14:26:15;18.50;1.00
21037;DHT22;10677;50.942;4.028;2024-03-29T14:28:41;18.90;1.00
21037;DHT22;10677;50.942;4.028;2024-03-29T14:31:07;19.30;1.00
21037;DHT22;10677;50.942;4.028;2024-03-29T14:33:33;19.40;1.00
21037;DHT22;10677;50.942;4.028;2024-03-29T14:36:01;18.90;1.00
21037;DHT22;10677;50.942;4.028;2024-03-29T14:38:28;18.50;1.00
21037;DHT22;10677;50.942;4.028;2024-03-29T14:40:55;18.50;1.00
21037;DHT22;10677;50.942;4.028;2024-03-29T14:43:21;18.60;1.00
21037;DHT22;10677;50.942;4.028;2024-03-29T14:45:47;19.00;1.00
21037;DHT22;10677;50.942;4.028;2024-03-29T14:48:16;19.30;1.00
21037;DHT22;10677;50.942;4.028;2024-03-29T14:50:44;20.00;1.00
21037;DHT22;10677;50.942;4.028;2024-03-29T14:53:10;19.90;1.00
21037;DHT22;10677;50.942;4.028;2024-03-29T14:55:36;19.50;1.00
21037;DHT22;10677;50.942;4.028;2024-03-29T14:58:05;19.00;1.00
21037;DHT22;10677;50.942;4.028;2024-03-29T15:00:31;19.00;1.00
21037;DHT22;10677;50.942;4.028;2024-03-29T15:02:57;19.20;1.00
21037;DHT22;10677;50.942;4.028;2024-03-29T15:05:22;19.40;1.00
21037;DHT22;10677;50.942;4.028;2024-03-29T15:07:51;19.50;1.00
21037;DHT22;10677;50.942;4.028;2024-03-29T15:10:17;19.90;1.00
21037;DHT22;10677;50.942;4.028;2024-03-29T15:12:44;20.50;1.00
21037;DHT22;10677;50.942;4.028;2024-03-29T15:15:12;20.70;1.00
21037;DHT22;10677;50.942;4.028;2024-03-29T15:17:38;20.00;1.00
21037;DHT22;10677;50.942;4.028;2024-03-29T15:20:04;19.30;1.00
21037;DHT22;10677;50.942;4.028;2024-03-29T15:22:32;18.60;1.00
21037;DHT22;10677;50.942;4.028;2024-03-29T15:24:59;18.50;1.00
21037;DHT22;10677;50.942;4.028;2024-03-29T15:27:25;18.20;1.00
21037;DHT22;10677;50.942;4.028;2024-03-29T15:30:14;18.10;1.00
21037;DHT22;10677;50.942;4.028;2024-03-29T15:32:40;17.90;1.00
21037;DHT22;10677;50.942;4.028;2024-03-29T15:35:06;17.60;1.00
21037;DHT22;10677;50.942;4.028;2024-03-29T15:37:32;17.50;1.00
21037;DHT22;10677;50.942;4.028;2024-03-29T15:39:58;17.40;1.00
21037;DHT22;10677;50.942;4.028;2024-03-29T15:42:24;17.30;1.00
21037;DHT22;10677;50.942;4.028;2024-03-29T15:44:49;17.20;1.00
21037;DHT22;10677;50.942;4.028;2024-03-29T15:47:16;17.40;1.00
21037;DHT22;10677;50.942;4.028;2024-03-29T15:49:42;17.40;1.00
21037;DHT22;10677;50.942;4.028;2024-03-29T15:52:07;17.30;1.00
21037;DHT22;10677;50.942;4.028;2024-03-29T15:54:34;16.90;1.00
21037;DHT22;10677;50.942;4.028;2024-03-29T15:57:00;16.90;1.00
21037;DHT22;10677;50.942;4.028;2024-03-29T15:59:26;17.00;1.00